createdAt,value
2024-02-03T00:01:14.777Z,3.87
2024-02-03T00:06:18.231Z,3.77
2024-02-03T00:11:23.334Z,3.93
2024-02-03T00:16:28.424Z,3.63
2024-02-03T00:21:32.007Z,3.83
2024-02-03T00:26:35.619Z,3.53
2024-02-03T00:31:39.194Z,3.97
2024-02-03T00:36:45.761Z,4.30
2024-02-03T00:41:49.418Z,3.93
2024-02-03T00:46:53.009Z,4.30
2024-02-03T00:51:56.470Z,4.43
2024-02-03T00:57:00.000Z,4.40
2024-02-03T01:02:03.762Z,4.10
2024-02-03T01:07:08.114Z,4.47
2024-02-03T01:12:11.954Z,4.10
2024-02-03T01:17:15.616Z,4.50
2024-02-03T01:22:19.073Z,4.37
2024-02-03T01:27:22.481Z,3.87
2024-02-03T01:32:26.104Z,5.50
2024-02-03T01:37:29.672Z,4.10
2024-02-03T01:42:33.106Z,4.80
2024-02-03T01:47:36.518Z,3.87
2024-02-03T01:52:40.676Z,3.80
2024-02-03T01:57:46.494Z,4.03
2024-02-03T02:02:49.903Z,4.40
2024-02-03T02:07:53.317Z,4.13
2024-02-03T02:12:57.038Z,4.73
2024-02-03T02:18:01.767Z,5.27
2024-02-03T02:23:05.371Z,4.87
2024-02-03T02:28:09.030Z,4.47
2024-02-03T02:33:13.256Z,4.27
2024-02-03T02:38:20.880Z,4.63
2024-02-03T02:43:24.247Z,3.77
2024-02-03T02:48:28.133Z,4.30
2024-02-03T02:53:31.608Z,4.67
2024-02-03T02:58:35.067Z,4.20
2024-02-03T03:03:38.717Z,3.80
2024-02-03T03:08:42.244Z,4.30
2024-02-03T03:13:45.726Z,3.57
2024-02-03T03:18:49.421Z,4.10
2024-02-03T03:23:53.011Z,4.13
2024-02-03T03:28:56.449Z,3.53
2024-02-03T03:33:59.967Z,3.13
2024-02-03T03:39:04.039Z,2.80
2024-02-03T03:44:07.295Z,2.87
2024-02-03T03:49:10.816Z,3.00
2024-02-03T03:54:15.177Z,2.77
2024-02-03T03:59:18.522Z,2.90
2024-02-03T04:04:22.324Z,3.03
2024-02-03T04:09:26.076Z,3.00
2024-02-03T04:14:29.631Z,3.10
2024-02-03T04:19:33.314Z,3.40
2024-02-03T04:24:37.588Z,3.10
2024-02-03T04:29:41.025Z,2.63
2024-02-03T04:34:45.552Z,2.80
2024-02-03T04:39:49.963Z,3.67
2024-02-03T04:44:54.079Z,3.23
2024-02-03T04:49:57.814Z,3.20
2024-02-03T04:55:01.243Z,4.57
2024-02-03T05:00:05.986Z,3.20
2024-02-03T05:05:09.973Z,2.83
2024-02-03T05:10:14.307Z,3.27
2024-02-03T05:15:19.814Z,3.10
2024-02-03T05:20:23.125Z,2.90
2024-02-03T05:25:26.518Z,2.97
2024-02-03T05:30:29.788Z,2.97
2024-02-03T05:35:33.315Z,3.13
2024-02-03T05:40:36.751Z,3.20
2024-02-03T05:45:40.395Z,3.40
2024-02-03T05:50:44.061Z,3.13
2024-02-03T05:55:48.282Z,2.73
2024-02-03T06:00:51.842Z,3.17
2024-02-03T06:06:12.232Z,3.20
2024-02-03T06:11:19.416Z,3.27
2024-02-03T06:16:22.948Z,3.17
2024-02-03T06:21:26.386Z,3.80
2024-02-03T06:26:32.081Z,5.93
2024-02-03T06:31:35.745Z,3.50
2024-02-03T06:36:39.365Z,2.83
2024-02-03T06:41:43.028Z,2.63
2024-02-03T06:46:46.364Z,2.70
2024-02-03T06:51:50.178Z,2.13
2024-02-03T06:56:53.693Z,2.20
2024-02-03T07:01:57.234Z,2.00
2024-02-03T07:07:00.828Z,1.70
2024-02-03T07:12:08.210Z,2.33
2024-02-03T07:17:12.142Z,1.97
2024-02-03T07:22:15.649Z,1.90
2024-02-03T07:27:19.255Z,2.30
2024-02-03T07:32:22.766Z,2.27
2024-02-03T07:37:26.161Z,2.10
2024-02-03T07:42:29.539Z,1.97
2024-02-03T07:47:34.419Z,2.10
2024-02-03T07:52:37.928Z,2.23
2024-02-03T07:57:41.178Z,2.03
2024-02-03T08:02:44.954Z,2.30
2024-02-03T08:07:49.790Z,2.30
2024-02-03T08:12:53.472Z,2.40
2024-02-03T08:17:56.924Z,2.03
2024-02-03T08:23:00.428Z,2.60
2024-02-03T08:28:04.711Z,2.27
2024-02-03T08:33:13.448Z,2.10
2024-02-03T08:38:17.438Z,2.10
2024-02-03T08:43:20.830Z,2.10
2024-02-03T08:48:24.574Z,1.70
2024-02-03T08:53:28.448Z,1.90
2024-02-03T08:58:32.633Z,2.50
2024-02-03T09:03:36.152Z,1.60
2024-02-03T09:08:40.057Z,1.80
2024-02-03T09:13:43.667Z,2.70
2024-02-03T09:18:47.545Z,2.23
2024-02-03T09:23:51.417Z,2.13
2024-02-03T09:28:57.151Z,2.07
2024-02-03T09:34:04.877Z,2.50
2024-02-03T09:39:09.252Z,2.63
2024-02-03T09:44:13.611Z,2.37
2024-02-03T09:49:17.214Z,2.47
2024-02-03T09:54:21.926Z,2.50
2024-02-03T09:59:25.523Z,3.03
2024-02-03T10:04:45.125Z,2.57
2024-02-03T10:15:09.394Z,2.63
2024-02-03T10:20:13.182Z,2.23
2024-02-03T10:25:18.664Z,2.10
2024-02-03T10:30:24.870Z,2.00
2024-02-03T10:35:36.318Z,2.20
2024-02-03T10:40:39.866Z,1.53
2024-02-03T10:45:46.710Z,2.10
2024-02-03T10:50:57.656Z,1.90
2024-02-03T10:56:10.338Z,1.88
2024-02-03T11:01:19.148Z,1.80
2024-02-03T11:06:30.485Z,2.10
2024-02-03T11:11:33.925Z,2.20
2024-02-03T11:16:37.812Z,1.87
2024-02-03T11:21:45.413Z,2.13
2024-02-03T11:27:15.242Z,1.97
2024-02-03T11:32:18.654Z,1.67
2024-02-03T11:37:23.003Z,1.57
2024-02-03T11:42:26.420Z,2.13
2024-02-03T11:47:31.542Z,2.00
2024-02-03T11:52:35.524Z,2.27
2024-02-03T11:57:38.942Z,1.57
2024-02-03T12:02:42.886Z,1.57
2024-02-03T12:07:46.212Z,1.50
2024-02-03T12:12:49.653Z,1.60
2024-02-03T12:17:53.507Z,1.80
2024-02-03T12:22:57.567Z,1.40
2024-02-03T12:28:01.236Z,1.70
2024-02-03T12:33:08.718Z,2.10
2024-02-03T12:38:12.246Z,1.70
2024-02-03T12:43:16.000Z,2.20
2024-02-03T12:48:19.635Z,1.90
2024-02-03T12:53:24.545Z,1.40
2024-02-03T12:58:31.733Z,1.27
2024-02-03T13:03:35.602Z,1.43
2024-02-03T13:08:39.289Z,1.80
2024-02-03T13:13:43.665Z,1.50
2024-02-03T13:18:50.869Z,1.50
2024-02-03T13:23:55.047Z,1.60
2024-02-03T13:28:59.393Z,1.13
2024-02-03T13:34:04.952Z,1.60
2024-02-03T13:39:08.770Z,1.50
2024-02-03T13:44:13.247Z,1.33
2024-02-03T13:49:17.868Z,1.60
2024-02-03T13:54:21.564Z,2.03
2024-02-03T13:59:29.345Z,1.63
2024-02-03T14:04:33.200Z,1.40
2024-02-03T14:09:36.970Z,1.53
2024-02-03T14:14:40.476Z,1.43
2024-02-03T14:19:45.125Z,1.50
2024-02-03T14:24:48.484Z,2.00
2024-02-03T14:29:52.115Z,1.93
2024-02-03T14:34:55.728Z,1.23
2024-02-03T14:39:59.390Z,1.67
2024-02-03T14:45:03.336Z,1.10
2024-02-03T14:50:07.847Z,1.10
2024-02-03T14:55:11.324Z,1.20
2024-02-03T15:00:15.762Z,1.63
2024-02-03T15:05:19.577Z,2.47
2024-02-03T15:10:23.842Z,1.53
2024-02-03T15:15:27.054Z,1.60
2024-02-03T15:20:30.721Z,1.10
2024-02-03T15:25:34.312Z,1.40
2024-02-03T15:30:37.810Z,1.13
2024-02-03T15:35:41.505Z,1.10
2024-02-03T15:40:48.226Z,1.30
2024-02-03T15:45:52.001Z,3.70
2024-02-03T15:50:56.056Z,1.60
2024-02-03T15:55:59.970Z,1.13
2024-02-03T16:01:04.480Z,1.20
2024-02-03T16:06:08.605Z,2.30
2024-02-03T16:11:12.784Z,0.93
2024-02-03T16:16:17.031Z,1.13
2024-02-03T16:21:20.458Z,1.00
2024-02-03T16:26:24.846Z,1.00
2024-02-03T16:31:28.719Z,1.50
2024-02-03T16:36:36.859Z,1.40
2024-02-03T16:41:40.815Z,1.27
2024-02-03T16:46:44.931Z,1.23
2024-02-03T16:51:49.070Z,0.90
2024-02-03T16:56:55.141Z,1.07
2024-02-03T17:02:02.757Z,0.90
2024-02-03T17:07:06.836Z,1.30
2024-02-03T17:12:11.148Z,0.97
2024-02-03T17:17:16.534Z,1.03
2024-02-03T17:22:20.496Z,1.33
2024-02-03T17:27:24.342Z,1.33
2024-02-03T17:32:28.387Z,1.30
2024-02-03T17:37:32.336Z,1.23
2024-02-03T17:42:41.476Z,0.83
2024-02-03T17:47:47.416Z,1.33
2024-02-03T17:52:53.514Z,0.90
2024-02-03T17:58:00.719Z,0.97
2024-02-03T18:03:12.497Z,0.87
2024-02-03T18:08:16.375Z,1.13
2024-02-03T18:13:25.361Z,1.50
2024-02-03T18:18:32.102Z,0.97
2024-02-03T18:23:48.308Z,0.90
2024-02-03T18:28:54.639Z,0.90
2024-02-03T18:34:07.518Z,0.90
2024-02-03T18:39:11.346Z,0.80
2024-02-03T18:44:14.966Z,0.90
2024-02-03T18:49:18.714Z,0.70
2024-02-03T18:54:23.675Z,0.80
2024-02-03T18:59:27.138Z,1.00
2024-02-03T19:04:30.901Z,1.00
2024-02-03T19:09:36.275Z,0.90
2024-02-03T19:14:40.141Z,0.70
2024-02-03T19:19:43.859Z,0.70
2024-02-03T19:24:49.349Z,0.73
2024-02-03T19:29:52.824Z,0.70
2024-02-03T19:34:56.296Z,0.73
2024-02-03T19:39:59.761Z,0.70
2024-02-03T19:45:03.958Z,0.60
2024-02-03T19:50:08.371Z,0.60
2024-02-03T19:55:12.140Z,0.80
2024-02-03T20:00:17.486Z,0.70
2024-02-03T20:05:21.285Z,0.67
2024-02-03T20:10:27.936Z,0.87
2024-02-03T20:15:31.597Z,0.83
2024-02-03T20:20:35.088Z,0.97
2024-02-03T20:25:40.611Z,0.80
2024-02-03T20:30:44.241Z,1.10
2024-02-03T20:35:47.874Z,1.20
2024-02-03T20:40:51.495Z,1.37
2024-02-03T20:45:57.055Z,2.47
2024-02-03T20:51:00.886Z,1.10
2024-02-03T20:56:05.072Z,1.03
2024-02-03T21:01:08.617Z,1.10
2024-02-03T21:06:12.511Z,1.40
2024-02-03T21:11:16.008Z,1.90
2024-02-03T21:16:21.617Z,1.70
2024-02-03T21:21:41.368Z,1.70
2024-02-03T21:26:49.175Z,1.40
2024-02-03T21:31:52.650Z,1.27
2024-02-03T21:36:56.220Z,1.30
2024-02-03T21:42:00.572Z,1.47
2024-02-03T21:47:04.438Z,1.13
2024-02-03T21:52:07.845Z,0.93
2024-02-03T21:57:11.306Z,1.30
2024-02-03T22:02:14.911Z,0.90
2024-02-03T22:07:18.714Z,0.83
2024-02-03T22:12:22.212Z,1.00
2024-02-03T22:17:25.879Z,1.00
2024-02-03T22:22:29.576Z,1.50
2024-02-03T22:27:36.155Z,1.30
2024-02-03T22:32:40.464Z,2.80
2024-02-03T22:37:47.965Z,0.80
2024-02-03T22:42:51.580Z,1.10
2024-02-03T22:47:55.675Z,1.23
2024-02-03T22:52:59.850Z,0.90
2024-02-03T22:58:04.601Z,0.70
2024-02-03T23:03:11.038Z,0.97
2024-02-03T23:08:14.983Z,1.10
2024-02-03T23:13:18.276Z,0.80
2024-02-03T23:18:21.926Z,0.97
2024-02-03T23:23:26.133Z,0.83
2024-02-03T23:28:31.730Z,0.80
2024-02-03T23:33:38.150Z,0.70
2024-02-03T23:38:44.851Z,0.70
2024-02-03T23:43:48.470Z,0.87
2024-02-03T23:48:51.943Z,0.50
2024-02-03T23:53:59.585Z,0.50
2024-02-03T23:59:03.031Z,0.50
